createdAt,value
2022-11-21T00:00:54.183Z,98.66
2022-11-21T00:01:54.225Z,98.66
2022-11-21T00:02:54.199Z,99.42
2022-11-21T00:03:54.207Z,98.47
2022-11-21T00:04:54.204Z,99.23
2022-11-21T00:05:54.206Z,99.99
2022-11-21T00:06:54.215Z,99.99
2022-11-21T00:07:54.205Z,99.99
2022-11-21T00:08:54.210Z,99.80
2022-11-21T00:09:54.213Z,99.99
2022-11-21T00:10:54.215Z,99.99
2022-11-21T00:11:54.221Z,99.99
2022-11-21T00:12:54.218Z,99.99
2022-11-21T00:13:54.226Z,99.99
2022-11-21T00:14:54.225Z,99.99
2022-11-21T00:15:54.232Z,99.99
2022-11-21T00:16:57.353Z,99.99
2022-11-21T00:17:54.239Z,99.99
2022-11-21T00:18:54.238Z,99.99
2022-11-21T00:19:54.242Z,99.99
2022-11-21T00:20:54.249Z,99.99
2022-11-21T00:21:54.253Z,99.99
2022-11-21T00:22:54.263Z,99.99
2022-11-21T00:23:54.261Z,99.99
2022-11-21T00:24:54.529Z,99.99
2022-11-21T00:25:54.261Z,99.99
2022-11-21T00:26:54.263Z,99.99
2022-11-21T00:27:54.269Z,99.99
2022-11-21T00:28:54.268Z,99.99
2022-11-21T00:29:54.285Z,99.99
2022-11-21T00:30:54.275Z,99.99
2022-11-21T00:31:54.282Z,99.99
2022-11-21T00:32:54.282Z,99.99
2022-11-21T00:33:54.289Z,99.99
2022-11-21T00:34:54.299Z,99.99
2022-11-21T00:35:54.296Z,99.99
2022-11-21T00:36:54.294Z,99.99
2022-11-21T00:37:54.307Z,99.99
2022-11-21T00:38:54.301Z,99.99
2022-11-21T00:39:54.310Z,99.99
2022-11-21T00:40:54.306Z,99.99
2022-11-21T00:41:54.322Z,99.99
2022-11-21T00:42:54.314Z,99.99
2022-11-21T00:43:54.319Z,99.99
2022-11-21T00:44:54.319Z,99.99
2022-11-21T00:45:54.328Z,99.99
2022-11-21T00:46:54.326Z,99.99
2022-11-21T00:47:54.332Z,99.99
2022-11-21T00:48:54.330Z,99.99
2022-11-21T00:49:54.343Z,99.99
2022-11-21T00:50:54.342Z,99.99
2022-11-21T00:51:54.347Z,99.99
2022-11-21T00:52:54.346Z,99.99
2022-11-21T00:53:54.350Z,99.99
2022-11-21T00:54:54.350Z,99.99
2022-11-21T00:55:54.355Z,99.99
2022-11-21T00:56:54.356Z,99.99
2022-11-21T00:57:54.370Z,99.99
2022-11-21T00:58:54.361Z,99.99
2022-11-21T00:59:54.368Z,99.99
2022-11-21T01:00:54.405Z,99.99
2022-11-21T01:01:54.374Z,99.99
2022-11-21T01:02:54.374Z,99.99
2022-11-21T01:03:54.379Z,99.99
2022-11-21T01:04:54.379Z,99.99
2022-11-21T01:05:54.395Z,99.99
2022-11-21T01:06:54.384Z,98.85
2022-11-21T01:07:54.389Z,99.04
2022-11-21T01:08:54.394Z,99.33
2022-11-21T01:09:54.399Z,98.28
2022-11-21T01:10:54.407Z,98.76
2022-11-21T01:11:54.404Z,97.53
2022-11-21T01:12:54.425Z,98.47
2022-11-21T01:13:54.412Z,98.57
2022-11-21T01:14:54.412Z,98.38
2022-11-21T01:15:54.416Z,97.44
2022-11-21T01:16:54.417Z,98.57
2022-11-21T01:17:54.424Z,98.28
2022-11-21T01:18:54.422Z,97.06
2022-11-21T01:19:54.429Z,96.49
2022-11-21T01:20:54.442Z,95.73
2022-11-21T01:21:54.460Z,96.87
2022-11-21T01:22:54.432Z,97.44
2022-11-21T01:23:54.444Z,96.87
2022-11-21T01:24:54.440Z,96.49
2022-11-21T01:25:54.445Z,95.26
2022-11-21T01:26:54.448Z,95.07
2022-11-21T01:27:54.551Z,95.64
2022-11-21T01:28:54.472Z,94.89
2022-11-21T01:29:54.459Z,97.15
2022-11-21T01:30:54.458Z,95.73
2022-11-21T01:31:54.466Z,95.07
2022-11-21T01:32:54.470Z,93.75
2022-11-21T01:33:54.471Z,95.83
2022-11-21T01:34:54.471Z,94.79
2022-11-21T01:35:54.475Z,94.60
2022-11-21T01:36:54.478Z,94.89
2022-11-21T01:37:54.485Z,95.73
2022-11-21T01:38:54.484Z,95.45
2022-11-21T01:39:54.489Z,95.54
2022-11-21T01:40:54.489Z,96.40
2022-11-21T01:41:54.498Z,95.64
2022-11-21T01:42:54.499Z,94.98
2022-11-21T01:43:54.503Z,95.07
2022-11-21T01:44:54.549Z,94.32
2022-11-21T01:45:54.508Z,94.79
2022-11-21T01:46:54.513Z,94.13
2022-11-21T01:47:54.516Z,94.79
2022-11-21T01:48:54.514Z,94.79
2022-11-21T01:49:54.519Z,94.51
2022-11-21T01:50:54.532Z,93.94
2022-11-21T01:51:54.525Z,95.07
2022-11-21T01:52:54.591Z,93.84
2022-11-21T01:53:54.533Z,94.79
2022-11-21T01:54:54.533Z,95.26
2022-11-21T01:55:54.552Z,96.11
2022-11-21T01:56:54.546Z,96.59
2022-11-21T01:57:54.556Z,97.34
2022-11-21T01:58:54.546Z,95.54
2022-11-21T01:59:54.554Z,94.79
2022-11-21T02:00:54.604Z,93.84
2022-11-21T02:01:54.560Z,93.84
2022-11-21T02:02:54.567Z,93.47
2022-11-21T02:03:54.583Z,93.28
2022-11-21T02:04:54.566Z,92.80
2022-11-21T02:05:54.574Z,92.33
2022-11-21T02:06:54.575Z,90.82
2022-11-21T02:07:54.583Z,90.82
2022-11-21T02:08:54.595Z,91.96
2022-11-21T02:09:54.585Z,93.09
2022-11-21T02:10:54.586Z,92.80
2022-11-21T02:11:54.602Z,91.86
2022-11-21T02:12:54.600Z,89.50
2022-11-21T02:13:54.601Z,88.36
2022-11-21T02:14:54.602Z,88.65
2022-11-21T02:15:54.608Z,87.89
2022-11-21T02:16:54.626Z,87.70
2022-11-21T02:17:54.613Z,87.61
2022-11-21T02:18:54.624Z,89.12
2022-11-21T02:19:54.621Z,89.50
2022-11-21T02:20:54.619Z,89.50
2022-11-21T02:21:54.627Z,89.40
2022-11-21T02:22:54.627Z,89.12
2022-11-21T02:23:59.132Z,88.93
2022-11-21T02:24:54.633Z,88.27
2022-11-21T02:25:54.644Z,86.38
2022-11-21T02:26:54.641Z,86.76
2022-11-21T02:27:54.649Z,85.53
2022-11-21T02:28:54.651Z,85.24
2022-11-21T02:29:54.654Z,85.62
2022-11-21T02:30:54.656Z,85.53
2022-11-21T02:31:54.659Z,86.19
2022-11-21T02:32:54.686Z,84.30
2022-11-21T02:33:54.677Z,83.64
2022-11-21T02:34:54.669Z,83.17
2022-11-21T02:35:54.677Z,83.45
2022-11-21T02:36:54.677Z,84.30
2022-11-21T02:37:54.682Z,84.20
2022-11-21T02:38:54.686Z,84.11
2022-11-21T02:39:54.691Z,85.24
2022-11-21T02:40:54.690Z,85.72
2022-11-21T02:41:54.699Z,84.96
2022-11-21T02:42:54.699Z,85.05
2022-11-21T02:43:54.729Z,85.53
2022-11-21T02:44:54.704Z,84.96
2022-11-21T02:45:54.714Z,84.11
2022-11-21T02:46:54.713Z,82.98
2022-11-21T02:47:58.048Z,83.07
2022-11-21T02:48:54.738Z,84.11
2022-11-21T02:49:54.727Z,84.01
2022-11-21T02:50:54.727Z,84.11
2022-11-21T02:51:54.735Z,84.01
2022-11-21T02:52:54.734Z,83.64
2022-11-21T02:53:54.747Z,82.88
2022-11-21T02:54:54.743Z,82.60
2022-11-21T02:55:54.750Z,83.17
2022-11-21T02:56:54.748Z,82.98
2022-11-21T02:57:54.757Z,82.31
2022-11-21T02:58:54.757Z,82.88
2022-11-21T02:59:54.761Z,82.88
2022-11-21T03:00:54.824Z,82.31
2022-11-21T03:01:54.802Z,82.41
2022-11-21T03:02:54.769Z,82.50
2022-11-21T03:03:54.782Z,82.98
2022-11-21T03:04:54.803Z,83.17
2022-11-21T03:05:54.784Z,82.41
2022-11-21T03:06:54.782Z,83.45
2022-11-21T03:07:54.787Z,87.79
2022-11-21T03:08:54.788Z,90.35
2022-11-21T03:09:54.796Z,91.67
2022-11-21T03:10:54.796Z,91.67
2022-11-21T03:11:54.802Z,91.48
2022-11-21T03:12:54.814Z,89.12
2022-11-21T03:13:54.810Z,86.47
2022-11-21T03:14:54.808Z,85.91
2022-11-21T03:15:54.818Z,85.81
2022-11-21T03:16:54.818Z,86.19
2022-11-21T03:17:54.824Z,85.62
2022-11-21T03:18:54.825Z,86.85
2022-11-21T03:19:54.828Z,87.79
2022-11-21T03:20:54.851Z,86.10
2022-11-21T03:21:54.838Z,86.85
2022-11-21T03:22:54.842Z,86.10
2022-11-21T03:23:54.846Z,84.86
2022-11-21T03:24:54.848Z,84.11
2022-11-21T03:25:54.854Z,83.54
2022-11-21T03:26:54.852Z,83.17
2022-11-21T03:27:54.859Z,82.98
2022-11-21T03:28:54.865Z,82.69
2022-11-21T03:29:54.867Z,83.26
2022-11-21T03:30:54.868Z,83.26
2022-11-21T03:31:54.873Z,82.88
2022-11-21T03:32:54.872Z,83.26
2022-11-21T03:33:54.883Z,83.07
2022-11-21T03:34:54.883Z,82.79
2022-11-21T03:35:54.887Z,83.17
2022-11-21T03:36:54.908Z,84.30
2022-11-21T03:37:54.893Z,84.01
2022-11-21T03:38:54.892Z,84.20
2022-11-21T03:39:54.899Z,83.17
2022-11-21T03:40:54.900Z,83.07
2022-11-21T03:41:54.918Z,84.01
2022-11-21T03:42:54.906Z,84.68
2022-11-21T03:43:54.914Z,84.20
2022-11-21T03:44:54.912Z,83.36
2022-11-21T03:45:54.919Z,83.73
2022-11-21T03:46:55.022Z,83.64
2022-11-21T03:47:54.927Z,82.79
2022-11-21T03:48:54.928Z,81.93
2022-11-21T03:49:54.936Z,81.56
2022-11-21T03:50:54.936Z,82.03
2022-11-21T03:51:54.937Z,81.46
2022-11-21T03:52:54.956Z,81.37
2022-11-21T03:53:54.950Z,81.18
2022-11-21T03:54:54.947Z,80.65
2022-11-21T03:55:54.957Z,79.90
2022-11-21T03:56:54.965Z,79.80
2022-11-21T03:57:54.967Z,80.27
2022-11-21T03:58:54.961Z,80.37
2022-11-21T03:59:54.965Z,80.56
2022-11-21T04:00:54.966Z,82.17
2022-11-21T04:01:54.994Z,82.64
2022-11-21T04:02:54.972Z,82.17
2022-11-21T04:03:54.980Z,81.32
2022-11-21T04:04:54.978Z,81.32
2022-11-21T04:05:54.986Z,80.65
2022-11-21T04:06:54.985Z,80.84
2022-11-21T04:07:54.991Z,80.75
2022-11-21T04:08:55.009Z,81.65
2022-11-21T04:09:54.999Z,81.98
2022-11-21T04:10:55.000Z,81.88
2022-11-21T04:11:55.005Z,82.22
2022-11-21T04:12:55.006Z,82.83
2022-11-21T04:13:55.012Z,82.50
2022-11-21T04:14:55.012Z,81.79
2022-11-21T04:15:55.018Z,82.17
2022-11-21T04:16:55.022Z,80.84
2022-11-21T04:17:55.028Z,79.90
2022-11-21T04:18:55.028Z,79.24
2022-11-21T04:19:55.044Z,79.61
2022-11-21T04:20:55.032Z,79.71
2022-11-21T04:21:55.044Z,79.14
2022-11-21T04:22:55.040Z,79.33
2022-11-21T04:23:55.057Z,78.86
2022-11-21T04:24:55.069Z,79.33
2022-11-21T04:25:55.054Z,79.33
2022-11-21T04:26:55.059Z,78.58
2022-11-21T04:27:55.059Z,78.95
2022-11-21T04:28:55.065Z,79.67
2022-11-21T04:29:55.071Z,79.24
2022-11-21T04:30:56.159Z,80.08
2022-11-21T04:31:55.074Z,79.90
2022-11-21T04:32:55.183Z,78.76
2022-11-21T04:33:55.082Z,78.39
2022-11-21T04:34:55.087Z,78.10
2022-11-21T04:35:55.088Z,78.01
2022-11-21T04:36:55.142Z,78.76
2022-11-21T04:37:55.098Z,79.24
2022-11-21T04:38:55.205Z,81.51
2022-11-21T04:39:55.102Z,81.88
2022-11-21T04:40:55.129Z,81.51
2022-11-21T04:41:55.111Z,80.75
2022-11-21T04:42:55.142Z,80.37
2022-11-21T04:43:55.117Z,80.56
2022-11-21T04:44:55.125Z,80.65
2022-11-21T04:45:55.125Z,81.70
2022-11-21T04:46:55.134Z,82.07
2022-11-21T04:47:55.132Z,81.88
2022-11-21T04:48:55.136Z,81.60
2022-11-21T04:49:55.148Z,81.88
2022-11-21T04:50:55.151Z,82.07
2022-11-21T04:51:55.159Z,81.98
2022-11-21T04:52:55.154Z,81.84
2022-11-21T04:53:55.160Z,81.09
2022-11-21T04:54:55.162Z,81.88
2022-11-21T04:55:55.162Z,82.41
2022-11-21T04:56:55.191Z,82.98
2022-11-21T04:57:55.173Z,83.36
2022-11-21T04:58:55.178Z,84.11
2022-11-21T04:59:55.180Z,84.58
2022-11-21T05:00:55.251Z,85.05
2022-11-21T05:01:55.190Z,85.53
2022-11-21T05:02:55.193Z,86.47
2022-11-21T05:03:55.192Z,87.04
2022-11-21T05:04:55.201Z,86.76
2022-11-21T05:05:55.201Z,86.94
2022-11-21T05:06:55.209Z,87.23
2022-11-21T05:07:55.209Z,86.66
2022-11-21T05:08:55.215Z,86.47
2022-11-21T05:09:55.227Z,85.91
2022-11-21T05:10:55.223Z,86.85
2022-11-21T05:11:55.231Z,87.32
2022-11-21T05:12:55.249Z,88.84
2022-11-21T05:13:55.233Z,88.65
2022-11-21T05:14:55.240Z,88.65
2022-11-21T05:15:55.340Z,88.36
2022-11-21T05:16:55.244Z,87.13
2022-11-21T05:17:55.244Z,87.04
2022-11-21T05:18:55.252Z,86.76
2022-11-21T05:19:55.252Z,87.42
2022-11-21T05:20:55.260Z,87.23
2022-11-21T05:21:55.261Z,87.79
2022-11-21T05:22:55.269Z,87.61
2022-11-21T05:23:55.280Z,88.08
2022-11-21T05:24:55.311Z,87.32
2022-11-21T05:25:55.275Z,87.70
2022-11-21T05:26:55.291Z,88.27
2022-11-21T05:27:55.282Z,88.65
2022-11-21T05:28:55.309Z,89.22
2022-11-21T05:29:55.292Z,89.22
2022-11-21T05:30:55.299Z,89.31
2022-11-21T05:31:55.297Z,89.22
2022-11-21T05:32:55.304Z,89.40
2022-11-21T05:33:55.305Z,90.16
2022-11-21T05:34:55.315Z,89.78
2022-11-21T05:35:55.314Z,89.87
2022-11-21T05:36:55.320Z,89.87
2022-11-21T05:37:55.320Z,89.69
2022-11-21T05:38:55.331Z,89.31
2022-11-21T05:39:55.327Z,89.40
2022-11-21T05:40:55.336Z,89.69
2022-11-21T05:41:59.925Z,89.78
2022-11-21T05:42:55.343Z,89.69
2022-11-21T05:43:55.343Z,89.31
2022-11-21T05:44:55.367Z,89.12
2022-11-21T05:45:55.349Z,88.74
2022-11-21T05:46:55.371Z,89.03
2022-11-21T05:47:55.368Z,89.31
2022-11-21T05:48:55.366Z,89.40
2022-11-21T05:49:55.372Z,89.78
2022-11-21T05:50:55.370Z,89.50
2022-11-21T05:51:55.374Z,89.97
2022-11-21T05:52:55.386Z,89.78
2022-11-21T05:53:55.378Z,90.25
2022-11-21T05:54:55.395Z,90.87
2022-11-21T05:55:55.387Z,91.58
2022-11-21T05:56:55.396Z,91.58
2022-11-21T05:57:55.394Z,91.06
2022-11-21T05:58:55.408Z,91.91
2022-11-21T05:59:55.420Z,92.10
2022-11-21T06:00:59.558Z,92.94
2022-11-21T06:01:55.407Z,92.47
2022-11-21T06:02:55.449Z,93.23
2022-11-21T06:03:55.413Z,93.04
2022-11-21T06:04:55.420Z,92.66
2022-11-21T06:05:55.421Z,92.66
2022-11-21T06:06:55.427Z,92.66
2022-11-21T06:07:55.428Z,92.57
2022-11-21T06:08:55.435Z,92.66
2022-11-21T06:09:55.439Z,92.66
2022-11-21T06:10:55.441Z,92.57
2022-11-21T06:11:55.441Z,91.72
2022-11-21T06:12:55.449Z,92.29
2022-11-21T06:13:55.449Z,92.66
2022-11-21T06:14:55.458Z,92.76
2022-11-21T06:15:55.453Z,92.29
2022-11-21T06:16:55.476Z,91.91
2022-11-21T06:17:55.470Z,92.10
2022-11-21T06:18:58.683Z,91.34
2022-11-21T06:19:55.468Z,91.53
2022-11-21T06:20:55.475Z,91.72
2022-11-21T06:21:55.473Z,91.53
2022-11-21T06:22:55.481Z,92.00
2022-11-21T06:23:55.479Z,91.82
2022-11-21T06:24:55.485Z,91.34
2022-11-21T06:25:55.487Z,90.49
2022-11-21T06:26:55.495Z,87.66
2022-11-21T06:27:55.492Z,86.71
2022-11-21T06:28:55.497Z,84.92
2022-11-21T06:29:55.502Z,83.97
2022-11-21T06:30:55.514Z,83.36
2022-11-21T06:31:55.506Z,82.41
2022-11-21T06:32:55.620Z,82.31
2022-11-21T06:33:55.509Z,82.12
2022-11-21T06:34:55.516Z,82.03
2022-11-21T06:35:55.517Z,80.99
2022-11-21T06:36:55.525Z,80.80
2022-11-21T06:37:55.523Z,80.24
2022-11-21T06:38:55.535Z,79.38
2022-11-21T06:39:55.529Z,78.91
2022-11-21T06:40:55.537Z,78.63
2022-11-21T06:41:55.535Z,77.87
2022-11-21T06:42:55.550Z,77.78
2022-11-21T06:43:55.542Z,77.59
2022-11-21T06:44:55.551Z,77.21
2022-11-21T06:45:55.560Z,76.83
2022-11-21T06:46:55.552Z,76.36
2022-11-21T06:47:55.556Z,75.60
2022-11-21T06:48:55.596Z,75.89
2022-11-21T06:49:55.564Z,76.64
2022-11-21T06:50:55.570Z,75.79
2022-11-21T06:51:55.668Z,75.42
2022-11-21T06:52:55.572Z,75.13
2022-11-21T06:53:55.574Z,75.04
2022-11-21T06:54:55.580Z,75.04
2022-11-21T06:55:55.581Z,74.95
2022-11-21T06:56:55.615Z,74.76
2022-11-21T06:57:55.587Z,75.79
2022-11-21T06:58:55.591Z,75.70
2022-11-21T06:59:55.596Z,74.85
2022-11-21T07:00:55.678Z,74.76
2022-11-21T07:01:55.599Z,74.09
2022-11-21T07:03:00.104Z,74.57
2022-11-21T07:03:55.611Z,75.79
2022-11-21T07:04:55.655Z,78.34
2022-11-21T07:05:55.612Z,79.76
2022-11-21T07:06:55.622Z,80.52
2022-11-21T07:07:55.619Z,81.27
2022-11-21T07:09:55.628Z,80.52
2022-11-21T07:11:22.911Z,78.72
2022-11-21T07:11:55.634Z,78.53
2022-11-21T07:12:55.640Z,77.78
2022-11-21T07:13:55.639Z,77.69
2022-11-21T07:14:55.644Z,77.02
2022-11-21T07:15:55.646Z,77.02
2022-11-21T07:16:55.655Z,77.12
2022-11-21T07:17:55.653Z,77.78
2022-11-21T07:18:55.660Z,78.34
2022-11-21T07:19:55.659Z,79.57
2022-11-21T07:20:55.686Z,80.14
2022-11-21T07:21:55.668Z,81.46
2022-11-21T07:22:55.675Z,81.27
2022-11-21T07:23:55.678Z,81.27
2022-11-21T07:24:55.684Z,81.46
2022-11-21T07:25:55.681Z,82.31
2022-11-21T07:26:55.691Z,82.69
2022-11-21T07:27:55.692Z,82.98
2022-11-21T07:28:55.696Z,83.36
2022-11-21T07:29:55.699Z,83.17
2022-11-21T07:30:55.706Z,83.54
2022-11-21T07:31:55.714Z,84.11
2022-11-21T07:32:55.712Z,84.20
2022-11-21T07:33:55.714Z,84.20
2022-11-21T07:34:55.719Z,84.58
2022-11-21T07:35:55.721Z,85.05
2022-11-21T07:36:55.745Z,85.62
2022-11-21T07:37:55.732Z,85.62
2022-11-21T07:38:55.737Z,85.62
2022-11-21T07:39:55.738Z,86.38
2022-11-21T07:40:55.744Z,85.91
2022-11-21T07:41:55.744Z,86.00
2022-11-21T07:42:55.848Z,86.94
2022-11-21T07:43:55.758Z,86.57
2022-11-21T07:44:55.771Z,86.29
2022-11-21T07:45:55.758Z,85.62
2022-11-21T07:46:55.777Z,85.72
2022-11-21T07:47:55.766Z,84.77
2022-11-21T07:48:58.327Z,85.24
2022-11-21T07:49:55.772Z,85.43
2022-11-21T07:50:55.779Z,85.15
2022-11-21T07:51:55.778Z,84.58
2022-11-21T07:52:55.835Z,84.39
2022-11-21T07:53:55.787Z,84.30
2022-11-21T07:54:55.802Z,84.20
2022-11-21T07:55:55.796Z,84.81
2022-11-21T07:56:55.803Z,85.38
2022-11-21T07:57:55.804Z,84.81
2022-11-21T07:58:55.811Z,85.19
2022-11-21T07:59:55.810Z,84.81
2022-11-21T08:00:55.833Z,84.63
2022-11-21T08:01:55.846Z,84.72
2022-11-21T08:02:55.825Z,84.34
2022-11-21T08:03:55.830Z,84.16
2022-11-21T08:04:55.843Z,83.97
2022-11-21T08:05:55.848Z,84.16
2022-11-21T08:06:55.844Z,83.78
2022-11-21T08:07:55.840Z,83.59
2022-11-21T08:08:55.869Z,83.02
2022-11-21T08:09:55.848Z,83.02
2022-11-21T08:10:55.860Z,82.64
2022-11-21T08:11:55.860Z,82.54
2022-11-21T08:12:55.867Z,82.45
2022-11-21T08:13:55.866Z,82.35
2022-11-21T08:14:55.876Z,82.73
2022-11-21T08:15:55.875Z,82.50
2022-11-21T08:16:55.880Z,80.79
2022-11-21T08:17:55.885Z,79.71
2022-11-21T08:18:55.894Z,79.24
2022-11-21T08:19:55.895Z,79.85
2022-11-21T08:20:55.900Z,79.56
2022-11-21T08:21:55.903Z,79.37
2022-11-21T08:22:55.910Z,79.28
2022-11-21T08:23:55.911Z,79.47
2022-11-21T08:24:55.967Z,79.56
2022-11-21T08:25:55.920Z,79.28
2022-11-21T08:26:55.934Z,79.37
2022-11-21T08:27:55.929Z,78.80
2022-11-21T08:28:59.894Z,79.09
2022-11-21T08:29:55.940Z,80.60
2022-11-21T08:30:55.959Z,82.21
2022-11-21T08:31:55.948Z,82.50
2022-11-21T08:32:55.960Z,81.36
2022-11-21T08:33:55.957Z,80.69
2022-11-21T08:34:55.966Z,81.17
2022-11-21T08:35:55.968Z,81.36
2022-11-21T08:36:55.978Z,80.88
2022-11-21T08:37:55.997Z,80.79
2022-11-21T08:38:55.986Z,80.04
2022-11-21T08:39:55.986Z,78.80
2022-11-21T08:40:56.012Z,78.52
2022-11-21T08:41:55.999Z,78.99
2022-11-21T08:42:56.001Z,78.52
2022-11-21T08:43:56.010Z,78.80
2022-11-21T08:44:56.012Z,77.95
2022-11-21T08:45:56.019Z,77.95
2022-11-21T08:46:56.020Z,75.49
2022-11-21T08:47:56.030Z,74.93
2022-11-21T08:48:56.029Z,78.14
2022-11-21T08:49:56.041Z,79.88
2022-11-21T08:50:56.053Z,81.77
2022-11-21T08:51:56.046Z,79.41
2022-11-21T08:52:56.060Z,77.04
2022-11-21T08:53:56.059Z,75.62
2022-11-21T08:54:56.059Z,76.38
2022-11-21T08:56:00.115Z,76.48
2022-11-21T08:56:56.088Z,73.92
2022-11-21T08:57:56.079Z,75.81
2022-11-21T08:58:56.083Z,76.80
2022-11-21T08:59:56.088Z,76.70
2022-11-21T09:00:56.101Z,76.80
2022-11-21T09:01:56.154Z,77.94
2022-11-21T09:02:56.101Z,75.66
2022-11-21T09:03:56.114Z,76.23
2022-11-21T09:04:56.109Z,74.81
2022-11-21T09:05:56.124Z,76.32
2022-11-21T09:06:56.119Z,75.85
2022-11-21T09:07:56.132Z,78.59
2022-11-21T09:08:56.133Z,75.76
2022-11-21T09:09:56.143Z,75.57
2022-11-21T09:10:56.161Z,75.98
2022-11-21T09:11:56.151Z,74.85
2022-11-21T09:12:56.178Z,72.96
2022-11-21T09:13:56.162Z,71.40
2022-11-21T09:14:56.165Z,71.69
2022-11-21T09:15:56.172Z,76.51
2022-11-21T09:17:01.740Z,72.73
2022-11-21T09:17:56.213Z,73.30
2022-11-21T09:18:56.186Z,73.39
2022-11-21T09:19:56.231Z,70.55
2022-11-21T09:20:56.200Z,70.45
2022-11-21T09:21:56.213Z,71.40
2022-11-21T09:22:56.210Z,73.64
2022-11-21T09:23:56.219Z,74.96
2022-11-21T09:24:56.221Z,75.05
2022-11-21T09:25:56.229Z,75.38
2022-11-21T09:26:56.237Z,75.34
2022-11-21T09:27:56.240Z,73.64
2022-11-21T09:28:56.262Z,72.03
2022-11-21T09:29:56.254Z,72.92
2022-11-21T09:30:56.258Z,73.11
2022-11-21T09:31:56.266Z,74.05
2022-11-21T09:32:56.270Z,73.68
2022-11-21T09:33:56.276Z,75.38
2022-11-21T09:34:56.280Z,74.71
2022-11-21T09:35:56.293Z,73.99
2022-11-21T09:36:56.292Z,76.55
2022-11-21T09:37:56.301Z,78.83
2022-11-21T09:38:56.303Z,76.59
2022-11-21T09:39:56.314Z,77.06
2022-11-21T09:40:56.314Z,75.84
2022-11-21T09:41:56.327Z,73.37
2022-11-21T09:42:56.327Z,73.08
2022-11-21T09:43:56.356Z,72.23
2022-11-21T09:44:56.360Z,70.62
2022-11-21T09:45:56.352Z,71.47
2022-11-21T09:46:56.356Z,71.57
2022-11-21T09:47:56.362Z,70.05
2022-11-21T09:48:56.365Z,70.15
2022-11-21T09:49:56.373Z,70.94
2022-11-21T09:50:56.378Z,69.90
2022-11-21T09:51:56.390Z,69.13
2022-11-21T09:52:56.392Z,69.61
2022-11-21T09:53:56.401Z,69.80
2022-11-21T09:54:56.404Z,68.44
2022-11-21T09:55:56.414Z,68.15
2022-11-21T09:56:56.419Z,67.93
2022-11-21T09:57:56.429Z,72.14
2022-11-21T09:58:56.432Z,72.04
2022-11-21T09:59:56.441Z,72.61
2022-11-21T10:00:56.560Z,74.54
2022-11-21T10:01:56.478Z,72.55
2022-11-21T10:02:56.462Z,69.90
2022-11-21T10:03:56.471Z,68.85
2022-11-21T10:04:56.473Z,70.24
2022-11-21T10:05:56.481Z,72.80
2022-11-21T10:06:56.492Z,71.47
2022-11-21T10:07:56.497Z,73.75
2022-11-21T10:08:56.500Z,73.65
2022-11-21T10:09:56.517Z,72.96
2022-11-21T10:10:56.519Z,74.13
2022-11-21T10:11:56.524Z,75.04
2022-11-21T10:12:56.534Z,73.99
2022-11-21T10:13:56.548Z,77.06
2022-11-21T10:14:56.543Z,78.77
2022-11-21T10:15:56.556Z,78.77
2022-11-21T10:16:57.025Z,76.59
2022-11-21T10:17:56.569Z,75.84
2022-11-21T10:18:56.574Z,74.98
2022-11-21T10:19:56.585Z,75.36
2022-11-21T10:20:56.587Z,76.97
2022-11-21T10:21:56.608Z,75.74
2022-11-21T10:22:56.602Z,74.03
2022-11-21T10:23:56.610Z,75.11
2022-11-21T10:24:56.619Z,75.02
2022-11-21T10:25:56.630Z,74.69
2022-11-21T10:26:56.631Z,74.64
2022-11-21T10:27:56.640Z,79.66
2022-11-21T10:28:56.649Z,75.49
2022-11-21T10:29:56.657Z,72.14
2022-11-21T10:30:56.685Z,72.64
2022-11-21T10:31:56.670Z,74.07
2022-11-21T10:32:56.700Z,72.80
2022-11-21T10:33:56.687Z,75.78
2022-11-21T10:34:56.695Z,75.17
2022-11-21T10:35:56.707Z,75.11
2022-11-21T10:36:56.712Z,74.13
2022-11-21T10:37:56.720Z,74.41
2022-11-21T10:38:56.720Z,74.45
2022-11-21T10:39:56.739Z,75.49
2022-11-21T10:40:56.743Z,72.84
2022-11-21T10:41:56.764Z,73.50
2022-11-21T10:42:56.765Z,75.21
2022-11-21T10:43:56.763Z,74.26
2022-11-21T10:44:56.788Z,72.36
2022-11-21T10:45:56.786Z,75.02
2022-11-21T10:46:56.789Z,72.84
2022-11-21T10:47:56.801Z,72.17
2022-11-21T10:48:56.816Z,74.45
2022-11-21T10:49:56.810Z,76.34
2022-11-21T10:50:56.814Z,78.05
2022-11-21T10:51:56.823Z,76.76
2022-11-21T10:52:56.833Z,75.68
2022-11-21T10:53:56.844Z,73.69
2022-11-21T10:54:56.849Z,74.26
2022-11-21T10:55:56.861Z,73.79
2022-11-21T10:56:56.862Z,73.88
2022-11-21T10:57:56.877Z,74.54
2022-11-21T10:58:56.877Z,76.01
2022-11-21T10:59:56.889Z,75.34
2022-11-21T11:00:57.042Z,75.43
2022-11-21T11:01:56.905Z,73.72
2022-11-21T11:02:56.914Z,75.24
2022-11-21T11:04:20.729Z,74.11
2022-11-21T11:04:57.479Z,73.25
2022-11-21T11:05:56.939Z,72.88
2022-11-21T11:06:56.945Z,74.96
2022-11-21T11:07:56.967Z,73.69
2022-11-21T11:08:56.961Z,69.52
2022-11-21T11:09:56.970Z,68.25
2022-11-21T11:10:56.976Z,67.81
2022-11-21T11:11:56.986Z,69.33
2022-11-21T11:12:56.998Z,72.17
2022-11-21T11:13:57.005Z,71.60
2022-11-21T11:14:57.007Z,71.60
2022-11-21T11:15:57.018Z,69.52
2022-11-21T11:16:57.025Z,71.13
2022-11-21T11:17:57.038Z,71.51
2022-11-21T11:18:57.107Z,69.61
2022-11-21T11:19:57.052Z,67.52
2022-11-21T11:20:58.115Z,67.62
2022-11-21T11:21:57.078Z,67.81
2022-11-21T11:22:57.081Z,67.05
2022-11-21T11:23:57.087Z,67.08
2022-11-21T11:25:00.518Z,67.37
2022-11-21T11:25:57.111Z,68.41
2022-11-21T11:26:57.116Z,68.41
2022-11-21T11:27:57.116Z,67.46
2022-11-21T11:28:57.171Z,67.27
2022-11-21T11:29:57.147Z,66.20
2022-11-21T11:30:57.140Z,66.35
2022-11-21T11:31:57.161Z,65.97
2022-11-21T11:32:57.155Z,66.45
2022-11-21T11:33:57.169Z,68.06
2022-11-21T11:34:57.173Z,67.11
2022-11-21T11:35:57.186Z,68.73
2022-11-21T11:36:57.210Z,69.01
2022-11-21T11:37:57.201Z,70.65
2022-11-21T11:38:57.244Z,69.71
2022-11-21T11:39:57.217Z,67.71
2022-11-21T11:40:57.959Z,68.00
2022-11-21T11:41:57.238Z,67.37
2022-11-21T11:42:57.238Z,66.89
2022-11-21T11:43:57.255Z,66.89
2022-11-21T11:44:57.258Z,69.74
2022-11-21T11:45:57.269Z,67.37
2022-11-21T11:46:57.273Z,67.08
2022-11-21T11:47:57.284Z,65.53
2022-11-21T11:49:19.148Z,65.53
2022-11-21T11:49:57.300Z,64.59
2022-11-21T11:50:57.946Z,65.22
2022-11-21T11:51:57.317Z,68.29
2022-11-21T11:52:57.348Z,70.53
2022-11-21T11:54:01.082Z,71.76
2022-11-21T11:54:57.340Z,74.32
2022-11-21T11:55:57.350Z,73.46
2022-11-21T11:56:57.359Z,72.71
2022-11-21T11:57:57.365Z,73.37
2022-11-21T11:58:57.374Z,72.99
2022-11-21T11:59:57.382Z,70.81
2022-11-21T12:00:57.390Z,69.38
2022-11-21T12:01:57.439Z,67.33
2022-11-21T12:02:57.405Z,66.86
2022-11-21T12:03:58.308Z,65.72
2022-11-21T12:04:57.420Z,62.88
2022-11-21T12:05:57.431Z,61.83
2022-11-21T12:08:05.822Z,62.88
2022-11-21T12:08:57.636Z,62.69
2022-11-21T12:09:57.477Z,67.14
2022-11-21T12:10:58.097Z,67.62
2022-11-21T12:11:57.480Z,67.90
2022-11-21T12:12:57.484Z,67.71
2022-11-21T12:13:57.506Z,68.95
2022-11-21T12:14:57.502Z,69.52
2022-11-21T12:16:04.023Z,69.08
2022-11-21T12:16:57.621Z,67.18
2022-11-21T12:17:57.532Z,65.28
2022-11-21T12:18:57.535Z,62.43
2022-11-21T12:19:57.545Z,63.67
2022-11-21T12:20:57.555Z,64.11
2022-11-21T12:21:57.568Z,66.23
2022-11-21T12:22:57.571Z,67.65
2022-11-21T12:23:57.596Z,70.50
2022-11-21T12:24:57.685Z,72.40
2022-11-21T12:25:57.635Z,73.07
2022-11-21T12:26:57.602Z,74.68
2022-11-21T12:27:57.613Z,75.02
2022-11-21T12:28:57.618Z,74.11
2022-11-21T12:29:57.639Z,74.01
2022-11-21T12:30:57.635Z,71.80
2022-11-21T12:31:57.647Z,70.84
2022-11-21T12:32:57.653Z,71.32
2022-11-21T12:33:57.663Z,68.00
2022-11-21T12:34:57.670Z,68.48
2022-11-21T12:36:09.230Z,66.39
2022-11-21T12:36:57.685Z,65.25
2022-11-21T12:37:57.696Z,64.68
2022-11-21T12:38:57.704Z,65.16
2022-11-21T12:39:57.716Z,66.96
2022-11-21T12:40:59.097Z,68.85
2022-11-21T12:41:57.736Z,69.42
2022-11-21T12:42:57.737Z,70.37
2022-11-21T12:43:57.996Z,71.51
2022-11-21T12:44:57.751Z,68.66
2022-11-21T12:45:57.764Z,68.00
2022-11-21T12:46:57.771Z,66.86
2022-11-21T12:47:57.779Z,65.25
2022-11-21T12:48:57.786Z,66.01
2022-11-21T12:49:57.798Z,65.25
2022-11-21T12:50:58.906Z,66.01
2022-11-21T12:51:57.815Z,66.23
2022-11-21T12:52:57.819Z,65.95
2022-11-21T12:53:57.842Z,66.33
2022-11-21T12:54:57.835Z,63.95